createdAt,value
2023-04-24T00:00:47.263Z,12.20
2023-04-24T00:01:49.772Z,12.20
2023-04-24T00:02:52.307Z,12.20
2023-04-24T00:03:54.949Z,12.20
2023-04-24T00:04:57.586Z,12.20
2023-04-24T00:06:00.155Z,12.20
2023-04-24T00:07:02.514Z,12.10
2023-04-24T00:08:04.887Z,12.10
2023-04-24T00:09:07.217Z,12.10
2023-04-24T00:10:09.908Z,12.10
2023-04-24T00:11:12.334Z,12.10
2023-04-24T00:12:14.638Z,12.10
2023-04-24T00:13:16.884Z,12.00
2023-04-24T00:14:19.242Z,12.00
2023-04-24T00:15:21.594Z,12.00
2023-04-24T00:16:24.452Z,12.00
2023-04-24T00:17:26.802Z,12.00
2023-04-24T00:18:29.095Z,12.00
2023-04-24T00:19:31.475Z,12.00
2023-04-24T00:20:34.500Z,12.00
2023-04-24T00:21:36.710Z,12.00
2023-04-24T00:22:39.141Z,12.00
2023-04-24T00:23:41.540Z,12.00
2023-04-24T00:24:44.219Z,12.00
2023-04-24T00:25:46.517Z,12.00
2023-04-24T00:26:48.861Z,12.00
2023-04-24T00:27:51.499Z,12.00
2023-04-24T00:28:53.804Z,12.00
2023-04-24T00:29:56.097Z,12.00
2023-04-24T00:30:58.514Z,12.00
2023-04-24T00:32:00.935Z,12.00
2023-04-24T00:33:03.961Z,12.00
2023-04-24T00:34:06.685Z,12.10
2023-04-24T00:35:09.129Z,12.10
2023-04-24T00:36:11.368Z,12.10
2023-04-24T00:37:13.677Z,12.10
2023-04-24T00:38:15.935Z,12.10
2023-04-24T00:39:18.383Z,12.10
2023-04-24T00:40:20.786Z,12.10
2023-04-24T00:41:23.877Z,12.10
2023-04-24T00:42:26.871Z,12.10
2023-04-24T00:43:29.264Z,12.10
2023-04-24T00:44:31.557Z,12.00
2023-04-24T00:45:33.990Z,12.10
2023-04-24T00:46:37.222Z,12.00
2023-04-24T00:47:40.005Z,12.00
2023-04-24T00:48:42.577Z,11.90
2023-04-24T00:49:45.209Z,11.90
2023-04-24T00:50:47.774Z,11.90
2023-04-24T00:51:52.256Z,11.90
2023-04-24T00:52:54.771Z,11.80
2023-04-24T00:53:57.084Z,11.80
2023-04-24T00:54:59.763Z,11.80
2023-04-24T00:56:03.272Z,11.80
2023-04-24T00:57:06.006Z,11.80
2023-04-24T00:58:08.440Z,11.80
2023-04-24T00:59:11.807Z,11.70
2023-04-24T01:00:16.040Z,11.70
2023-04-24T01:01:22.046Z,11.70
2023-04-24T01:02:25.501Z,11.70
2023-04-24T01:03:31.036Z,11.70
2023-04-24T01:04:33.799Z,11.70
2023-04-24T01:05:36.204Z,11.70
2023-04-24T01:06:40.783Z,11.70
2023-04-24T01:07:46.797Z,11.70
2023-04-24T01:08:49.699Z,11.70
2023-04-24T01:09:53.205Z,11.70
2023-04-24T01:10:57.856Z,11.60
2023-04-24T01:12:01.544Z,11.70
2023-04-24T01:13:03.856Z,11.70
2023-04-24T01:14:06.109Z,11.70
2023-04-24T01:15:09.582Z,11.70
2023-04-24T01:16:11.915Z,11.70
2023-04-24T01:17:14.259Z,11.70
2023-04-24T01:18:17.146Z,11.70
2023-04-24T01:19:20.364Z,11.70
2023-04-24T01:20:23.609Z,11.70
2023-04-24T01:21:28.804Z,11.80
2023-04-24T01:22:31.128Z,11.80
2023-04-24T01:23:33.399Z,11.80
2023-04-24T01:24:35.670Z,11.80
2023-04-24T01:25:38.285Z,11.80
2023-04-24T01:26:40.582Z,11.90
2023-04-24T01:27:43.128Z,11.90
2023-04-24T01:28:45.479Z,11.90
2023-04-24T01:29:50.321Z,11.90
2023-04-24T01:30:53.737Z,12.00
2023-04-24T01:31:59.642Z,12.00
2023-04-24T01:33:02.569Z,12.00
2023-04-24T01:34:04.997Z,12.00
2023-04-24T01:35:08.508Z,12.00
2023-04-24T01:36:12.513Z,12.00
2023-04-24T01:37:14.812Z,12.00
2023-04-24T01:38:17.236Z,12.00
2023-04-24T01:39:21.585Z,12.00
2023-04-24T01:40:23.985Z,12.00
2023-04-24T01:41:26.414Z,12.00
2023-04-24T01:42:28.780Z,12.00
2023-04-24T01:43:31.413Z,12.00
2023-04-24T01:44:34.767Z,12.00
2023-04-24T01:45:37.062Z,12.00
2023-04-24T01:46:40.336Z,12.00
2023-04-24T01:47:43.210Z,12.00
2023-04-24T01:48:46.858Z,12.00
2023-04-24T01:49:49.589Z,12.00
2023-04-24T01:50:51.902Z,12.00
2023-04-24T01:51:54.301Z,12.00
2023-04-24T01:52:56.551Z,12.10
2023-04-24T01:53:58.921Z,12.10
2023-04-24T01:55:01.817Z,12.10
2023-04-24T01:56:04.790Z,12.10
2023-04-24T01:57:07.286Z,12.10
2023-04-24T01:58:09.842Z,12.10
2023-04-24T01:59:12.718Z,12.20
2023-04-24T02:00:15.433Z,12.10
2023-04-24T02:01:22.076Z,12.10
2023-04-24T02:02:31.183Z,12.10
2023-04-24T02:03:33.826Z,12.20
2023-04-24T02:04:36.258Z,12.20
2023-04-24T02:05:38.541Z,12.20
2023-04-24T02:06:40.946Z,12.20
2023-04-24T02:07:43.265Z,12.20
2023-04-24T02:08:45.598Z,12.20
2023-04-24T02:09:48.192Z,12.20
2023-04-24T02:10:50.443Z,12.20
2023-04-24T02:11:52.807Z,12.20
2023-04-24T02:12:55.075Z,12.20
2023-04-24T02:14:00.278Z,12.20
2023-04-24T02:15:02.664Z,12.30
2023-04-24T02:16:05.249Z,12.30
2023-04-24T02:17:07.759Z,12.30
2023-04-24T02:18:13.840Z,12.30
2023-04-24T02:19:16.315Z,12.30
2023-04-24T02:20:18.988Z,12.30
2023-04-24T02:21:21.355Z,12.30
2023-04-24T02:22:23.589Z,12.30
2023-04-24T02:23:26.505Z,12.30
2023-04-24T02:24:28.780Z,12.30
2023-04-24T02:25:31.409Z,12.30
2023-04-24T02:26:33.738Z,12.40
2023-04-24T02:27:36.029Z,12.40
2023-04-24T02:28:41.626Z,12.40
2023-04-24T02:29:44.164Z,12.40
2023-04-24T02:30:46.704Z,12.40
2023-04-24T02:31:49.690Z,12.40
2023-04-24T02:32:52.607Z,12.50
2023-04-24T02:33:54.973Z,12.50
2023-04-24T02:34:57.275Z,12.40
2023-04-24T02:35:59.647Z,12.50
2023-04-24T02:37:02.092Z,12.50
2023-04-24T02:38:04.855Z,12.50
2023-04-24T02:39:07.496Z,12.50
2023-04-24T02:40:10.632Z,12.50
2023-04-24T02:41:12.976Z,12.60
2023-04-24T02:42:15.283Z,12.50
2023-04-24T02:43:17.535Z,12.60
2023-04-24T02:44:19.977Z,12.60
2023-04-24T02:45:22.483Z,12.60
2023-04-24T02:46:25.015Z,12.60
2023-04-24T02:47:27.384Z,12.60
2023-04-24T02:48:29.721Z,12.60
2023-04-24T02:49:32.116Z,12.60
2023-04-24T02:50:34.705Z,12.60
2023-04-24T02:51:39.196Z,12.60
2023-04-24T02:52:41.508Z,12.60
2023-04-24T02:53:44.002Z,12.60
2023-04-24T02:54:46.263Z,12.70
2023-04-24T02:55:48.660Z,12.70
2023-04-24T02:56:51.440Z,12.60
2023-04-24T02:57:53.651Z,12.70
2023-04-24T02:58:56.056Z,12.70
2023-04-24T02:59:58.303Z,12.70
2023-04-24T03:01:01.571Z,12.70
2023-04-24T03:02:04.091Z,12.70
2023-04-24T03:03:06.767Z,12.70
2023-04-24T03:04:09.482Z,12.70
2023-04-24T03:05:13.259Z,12.70
2023-04-24T03:06:15.576Z,12.80
2023-04-24T03:07:17.908Z,12.70
2023-04-24T03:08:20.280Z,12.80
2023-04-24T03:09:22.931Z,12.80
2023-04-24T03:10:25.618Z,12.80
2023-04-24T03:11:27.897Z,12.80
2023-04-24T03:12:30.141Z,12.80
2023-04-24T03:13:32.411Z,12.80
2023-04-24T03:14:34.754Z,12.80
2023-04-24T03:15:37.019Z,12.90
2023-04-24T03:16:39.476Z,12.90
2023-04-24T03:17:42.964Z,12.90
2023-04-24T03:18:45.521Z,12.90
2023-04-24T03:19:48.739Z,12.90
2023-04-24T03:20:51.072Z,12.90
2023-04-24T03:21:53.448Z,12.80
2023-04-24T03:22:55.843Z,12.80
2023-04-24T03:23:58.535Z,12.90
2023-04-24T03:25:01.277Z,12.80
2023-04-24T03:26:03.748Z,12.90
2023-04-24T03:27:07.794Z,12.80
2023-04-24T03:28:27.433Z,12.80
2023-04-24T03:29:39.087Z,12.80
2023-04-24T03:30:41.824Z,12.90
2023-04-24T03:31:44.999Z,12.80
2023-04-24T03:32:47.633Z,12.80
2023-04-24T03:33:54.125Z,12.90
2023-04-24T03:34:56.406Z,12.90
2023-04-24T03:35:58.752Z,12.90
2023-04-24T03:37:01.403Z,12.90
2023-04-24T03:38:05.700Z,12.90
2023-04-24T03:39:31.164Z,12.90
2023-04-24T03:40:34.685Z,12.90
2023-04-24T03:41:38.292Z,12.90
2023-04-24T03:42:46.694Z,13.00
2023-04-24T03:43:49.520Z,12.90
2023-04-24T03:44:52.066Z,12.90
2023-04-24T03:45:58.169Z,12.90
2023-04-24T03:47:01.175Z,12.90
2023-04-24T03:48:03.739Z,13.00
2023-04-24T03:49:06.407Z,12.90
2023-04-24T03:50:13.138Z,12.90
2023-04-24T03:51:16.767Z,12.90
2023-04-24T03:52:21.982Z,13.00
2023-04-24T03:53:24.340Z,13.00
2023-04-24T03:54:26.721Z,12.90
2023-04-24T03:55:30.032Z,12.90
2023-04-24T03:56:32.314Z,12.90
2023-04-24T03:57:34.721Z,12.90
2023-04-24T03:58:45.010Z,12.90
2023-04-24T03:59:47.697Z,12.80
2023-04-24T04:00:53.900Z,12.80
2023-04-24T04:02:14.281Z,12.80
2023-04-24T04:03:17.396Z,12.80
2023-04-24T04:04:19.940Z,12.70
2023-04-24T04:05:22.570Z,12.70
2023-04-24T04:06:25.048Z,12.70
2023-04-24T04:07:30.905Z,12.70
2023-04-24T04:08:33.612Z,12.60
2023-04-24T04:09:35.973Z,12.60
2023-04-24T04:10:38.301Z,12.60
2023-04-24T04:11:40.963Z,12.60
2023-04-24T04:12:43.290Z,12.50
2023-04-24T04:13:46.704Z,12.50
2023-04-24T04:14:49.081Z,12.50
2023-04-24T04:15:51.704Z,12.50
2023-04-24T04:16:55.022Z,12.40
2023-04-24T04:17:57.712Z,12.40
2023-04-24T04:19:00.354Z,12.40
2023-04-24T04:20:03.186Z,12.40
2023-04-24T04:21:05.957Z,12.40
2023-04-24T04:22:09.125Z,12.50
2023-04-24T04:23:17.177Z,12.40
2023-04-24T04:24:41.732Z,12.40
2023-04-24T04:25:45.327Z,12.40
2023-04-24T04:26:48.254Z,12.50
2023-04-24T04:28:00.582Z,12.50
2023-04-24T04:29:04.294Z,12.50
2023-04-24T04:30:08.699Z,12.60
2023-04-24T04:31:22.153Z,12.60
2023-04-24T04:32:25.240Z,12.60
2023-04-24T04:33:28.576Z,12.60
2023-04-24T04:34:32.406Z,12.70
2023-04-24T04:35:35.403Z,12.70
2023-04-24T04:36:38.067Z,12.70
2023-04-24T04:38:00.763Z,12.70
2023-04-24T04:39:23.510Z,12.70
2023-04-24T04:40:33.663Z,12.80
2023-04-24T04:41:41.504Z,12.80
2023-04-24T04:42:47.129Z,12.90
2023-04-24T04:43:50.021Z,12.90
2023-04-24T04:44:53.335Z,12.90
2023-04-24T04:46:01.864Z,12.90
2023-04-24T04:47:06.481Z,13.00
2023-04-24T04:48:13.811Z,13.00
2023-04-24T04:49:17.895Z,13.00
2023-04-24T04:50:21.671Z,13.10
2023-04-24T04:51:37.513Z,13.10
2023-04-24T04:52:40.284Z,13.10
2023-04-24T04:53:54.343Z,13.10
2023-04-24T04:54:56.933Z,13.10
2023-04-24T04:56:06.362Z,13.10
2023-04-24T04:57:13.536Z,13.10
2023-04-24T04:58:15.934Z,13.10
2023-04-24T04:59:19.972Z,13.10
2023-04-24T05:00:26.312Z,13.10
2023-04-24T05:01:29.249Z,13.10
2023-04-24T05:02:32.115Z,13.20
2023-04-24T05:03:35.063Z,13.20
2023-04-24T05:04:42.072Z,13.20
2023-04-24T05:05:44.636Z,13.20
2023-04-24T05:06:49.508Z,13.30
2023-04-24T05:07:51.791Z,13.30
2023-04-24T05:08:58.329Z,13.30
2023-04-24T05:10:20.000Z,13.40
2023-04-24T05:11:24.465Z,13.40
2023-04-24T05:12:27.928Z,13.50
2023-04-24T05:13:39.112Z,13.50
2023-04-24T05:15:00.877Z,13.50
2023-04-24T05:16:03.353Z,13.60
2023-04-24T05:17:06.899Z,13.60
2023-04-24T05:18:09.334Z,13.70
2023-04-24T05:19:12.954Z,13.70
2023-04-24T05:20:16.969Z,13.70
2023-04-24T05:21:19.427Z,13.70
2023-04-24T05:22:25.734Z,13.80
2023-04-24T05:23:28.622Z,13.80
2023-04-24T05:24:32.435Z,13.80
2023-04-24T05:25:56.436Z,13.80
2023-04-24T05:26:59.780Z,13.80
2023-04-24T05:28:08.562Z,13.80
2023-04-24T05:29:10.918Z,13.80
2023-04-24T05:30:13.815Z,13.80
2023-04-24T05:31:16.243Z,13.80
2023-04-24T05:32:18.665Z,13.80
2023-04-24T05:33:20.955Z,13.70
2023-04-24T05:34:23.405Z,13.70
2023-04-24T05:35:29.600Z,13.70
2023-04-24T05:36:32.230Z,13.70
2023-04-24T05:37:34.720Z,13.70
2023-04-24T05:38:37.365Z,13.70
2023-04-24T05:39:42.272Z,13.80
2023-04-24T05:40:44.780Z,13.80
2023-04-24T05:41:47.066Z,13.80
2023-04-24T05:42:49.371Z,13.90
2023-04-24T05:43:52.153Z,14.00
2023-04-24T05:44:57.876Z,14.00
2023-04-24T05:46:00.996Z,14.00
2023-04-24T05:47:03.412Z,14.10
2023-04-24T05:48:06.900Z,14.10
2023-04-24T05:49:11.472Z,14.10
2023-04-24T05:50:14.596Z,14.20
2023-04-24T05:51:16.991Z,14.20
2023-04-24T05:52:19.421Z,14.20
2023-04-24T05:53:21.980Z,14.30
2023-04-24T05:54:24.599Z,14.30
2023-04-24T05:55:27.771Z,14.30
2023-04-24T05:56:30.996Z,14.30
2023-04-24T05:57:34.838Z,14.30
2023-04-24T05:58:39.362Z,14.30
2023-04-24T05:59:42.136Z,14.30
2023-04-24T06:00:47.354Z,14.40
2023-04-24T06:01:49.785Z,14.30
2023-04-24T06:02:56.566Z,14.30
2023-04-24T06:03:59.117Z,14.30
2023-04-24T06:05:02.270Z,14.30
2023-04-24T06:06:04.891Z,14.30
2023-04-24T06:07:07.464Z,14.30
2023-04-24T06:08:11.236Z,14.40
2023-04-24T06:09:15.611Z,14.40
2023-04-24T06:10:18.258Z,14.40
2023-04-24T06:11:21.068Z,14.50
2023-04-24T06:12:23.978Z,14.60
2023-04-24T06:13:32.430Z,14.60
2023-04-24T06:15:01.469Z,14.70
2023-04-24T06:16:24.015Z,14.80
2023-04-24T06:17:35.700Z,14.90
2023-04-24T06:18:40.624Z,14.90
2023-04-24T06:19:43.334Z,15.00
2023-04-24T06:20:46.764Z,15.10
2023-04-24T06:21:49.395Z,15.20
2023-04-24T06:22:52.029Z,15.30
2023-04-24T06:23:55.090Z,15.30
2023-04-24T06:24:57.596Z,15.40
2023-04-24T06:26:00.892Z,15.50
2023-04-24T06:27:03.667Z,15.60
2023-04-24T06:28:06.127Z,15.70
2023-04-24T06:29:08.913Z,15.70
2023-04-24T06:30:12.253Z,15.80
2023-04-24T06:31:14.623Z,15.90
2023-04-24T06:32:17.170Z,16.00
2023-04-24T06:33:21.257Z,16.00
2023-04-24T06:34:24.664Z,16.10
2023-04-24T06:35:27.073Z,16.10
2023-04-24T06:36:29.590Z,16.10
2023-04-24T06:37:33.211Z,16.20
2023-04-24T06:38:35.694Z,16.30
2023-04-24T06:39:38.353Z,16.30
2023-04-24T06:40:40.692Z,16.30
2023-04-24T06:41:43.025Z,16.30
2023-04-24T06:42:54.538Z,16.30
2023-04-24T06:43:56.988Z,16.40
2023-04-24T06:44:59.271Z,16.40
2023-04-24T06:46:02.345Z,16.40
2023-04-24T06:47:04.699Z,16.40
2023-04-24T06:48:07.220Z,16.30
2023-04-24T06:49:09.572Z,16.40
2023-04-24T06:50:12.621Z,16.40
2023-04-24T06:51:14.914Z,16.40
2023-04-24T06:52:17.637Z,16.40
2023-04-24T06:53:20.693Z,16.40
2023-04-24T06:54:23.008Z,16.40
2023-04-24T06:55:25.504Z,16.40
2023-04-24T06:56:27.834Z,16.40
2023-04-24T06:57:30.773Z,16.50
2023-04-24T06:58:33.099Z,16.50
2023-04-24T06:59:35.643Z,16.50
2023-04-24T07:00:38.067Z,16.50
2023-04-24T07:01:40.677Z,16.60
2023-04-24T07:02:43.052Z,16.60
2023-04-24T07:03:45.927Z,16.60
2023-04-24T07:04:48.680Z,16.60
2023-04-24T07:05:51.052Z,16.50
2023-04-24T07:06:57.004Z,16.50
2023-04-24T07:07:59.432Z,16.50
2023-04-24T07:09:02.856Z,16.50
2023-04-24T07:10:06.282Z,16.50
2023-04-24T07:11:08.578Z,16.50
2023-04-24T07:12:14.556Z,16.40
2023-04-24T07:13:17.141Z,16.40
2023-04-24T07:14:19.552Z,16.40
2023-04-24T07:15:22.068Z,16.40
2023-04-24T07:16:24.354Z,16.30
2023-04-24T07:17:26.944Z,16.30
2023-04-24T07:18:30.014Z,16.30
2023-04-24T07:19:32.593Z,16.30
2023-04-24T07:20:35.694Z,16.30
2023-04-24T07:21:37.970Z,16.20
2023-04-24T07:22:40.227Z,16.30
2023-04-24T07:23:43.329Z,16.20
2023-04-24T07:24:46.150Z,16.20
2023-04-24T07:25:48.472Z,16.20
2023-04-24T07:26:52.992Z,16.20
2023-04-24T07:27:55.737Z,16.20
2023-04-24T07:28:58.202Z,16.20
2023-04-24T07:30:00.480Z,16.30
2023-04-24T07:31:02.785Z,16.30
2023-04-24T07:32:05.245Z,16.40
2023-04-24T07:33:07.996Z,16.50
2023-04-24T07:34:10.678Z,16.60
2023-04-24T07:35:13.042Z,16.70
2023-04-24T07:36:19.985Z,16.80
2023-04-24T07:37:22.735Z,16.90
2023-04-24T07:38:26.827Z,17.00
2023-04-24T07:39:30.255Z,17.10
2023-04-24T07:40:32.673Z,17.20
2023-04-24T07:41:35.099Z,17.30
2023-04-24T07:42:37.553Z,17.50
2023-04-24T07:43:40.137Z,17.60
2023-04-24T07:44:42.390Z,17.70
2023-04-24T07:45:45.112Z,17.80
2023-04-24T07:46:48.369Z,17.90
2023-04-24T07:47:51.948Z,17.90
2023-04-24T07:49:09.249Z,18.00
2023-04-24T07:50:15.131Z,18.00
2023-04-24T07:51:17.719Z,18.00
2023-04-24T07:52:19.956Z,18.00
2023-04-24T07:53:22.417Z,18.00
2023-04-24T07:54:24.654Z,18.00
2023-04-24T07:55:28.373Z,18.10
2023-04-24T07:56:32.535Z,18.10
2023-04-24T07:57:35.060Z,18.20
2023-04-24T07:58:37.597Z,18.30
2023-04-24T07:59:39.914Z,18.40
2023-04-24T08:00:42.460Z,18.50
2023-04-24T08:01:44.785Z,18.50
2023-04-24T08:02:47.141Z,18.60
2023-04-24T08:03:49.693Z,18.60
2023-04-24T08:04:52.745Z,18.70
2023-04-24T08:05:55.191Z,18.80
2023-04-24T08:06:57.567Z,18.90
2023-04-24T08:08:00.128Z,18.90
2023-04-24T08:09:02.844Z,18.90
2023-04-24T08:10:05.871Z,19.00
2023-04-24T08:11:08.250Z,19.00
2023-04-24T08:12:10.756Z,19.00
2023-04-24T08:13:13.020Z,19.00
2023-04-24T08:14:15.967Z,19.00
2023-04-24T08:15:18.947Z,19.10
2023-04-24T08:16:21.625Z,19.10
2023-04-24T08:17:23.960Z,19.10
2023-04-24T08:18:26.424Z,19.10
2023-04-24T08:19:29.051Z,19.10
2023-04-24T08:20:31.720Z,19.10
2023-04-24T08:21:34.061Z,19.10
2023-04-24T08:22:36.459Z,19.20
2023-04-24T08:23:38.847Z,19.20
2023-04-24T08:24:41.432Z,19.20
2023-04-24T08:25:43.750Z,19.20
2023-04-24T08:26:46.556Z,19.20
2023-04-24T08:27:48.773Z,19.30
2023-04-24T08:28:51.070Z,19.30
2023-04-24T08:29:55.179Z,19.40
2023-04-24T08:30:57.463Z,19.50
2023-04-24T08:31:59.978Z,19.50
2023-04-24T08:33:02.537Z,19.50
2023-04-24T08:34:04.819Z,19.60
2023-04-24T08:35:10.214Z,19.60
2023-04-24T08:36:12.553Z,19.60
2023-04-24T08:37:14.917Z,19.50
2023-04-24T08:38:17.851Z,19.50
2023-04-24T08:39:20.243Z,19.40
2023-04-24T08:40:30.042Z,19.40
2023-04-24T08:41:33.962Z,19.30
2023-04-24T08:42:38.226Z,19.30
2023-04-24T08:43:41.224Z,19.20
2023-04-24T08:44:44.434Z,19.10
2023-04-24T08:45:46.701Z,19.00
2023-04-24T08:46:50.210Z,19.10
2023-04-24T08:47:54.330Z,19.00
2023-04-24T08:48:57.903Z,19.10
2023-04-24T08:50:03.742Z,19.10
2023-04-24T08:51:08.731Z,19.10
2023-04-24T08:52:14.286Z,19.10
2023-04-24T08:53:17.262Z,19.20
2023-04-24T08:54:20.050Z,19.20
2023-04-24T08:55:22.399Z,19.20
2023-04-24T08:56:25.834Z,19.20
2023-04-24T08:57:28.529Z,19.20
2023-04-24T08:58:32.670Z,19.20
2023-04-24T08:59:36.343Z,19.20
2023-04-24T09:00:40.936Z,19.20
2023-04-24T09:01:43.942Z,19.20
2023-04-24T09:02:48.004Z,19.40
2023-04-24T09:03:51.209Z,19.40
2023-04-24T09:04:54.475Z,19.40
2023-04-24T09:05:57.088Z,19.50
2023-04-24T09:07:00.825Z,19.60
2023-04-24T09:08:03.983Z,19.80
2023-04-24T09:09:06.550Z,19.90
2023-04-24T09:10:09.221Z,20.00
2023-04-24T09:11:12.620Z,20.00
2023-04-24T09:12:15.496Z,20.00
2023-04-24T09:13:19.719Z,20.00
2023-04-24T09:14:22.482Z,19.90
2023-04-24T09:15:25.422Z,19.80
2023-04-24T09:16:28.109Z,19.70
2023-04-24T09:17:32.013Z,19.60
2023-04-24T09:18:36.265Z,19.60
2023-04-24T09:19:38.995Z,19.50
2023-04-24T09:21:13.476Z,19.50
2023-04-24T09:22:16.509Z,19.50
2023-04-24T09:23:19.330Z,19.40
2023-04-24T09:24:25.647Z,19.40
2023-04-24T09:25:36.834Z,19.40
2023-04-24T09:26:39.135Z,19.40
2023-04-24T09:27:46.370Z,19.30
2023-04-24T09:28:48.953Z,19.40
2023-04-24T09:29:57.881Z,19.40
2023-04-24T09:31:04.993Z,19.40
2023-04-24T09:32:22.946Z,19.40
2023-04-24T09:33:25.804Z,19.60
2023-04-24T09:34:28.727Z,19.70
2023-04-24T09:35:33.400Z,19.90
2023-04-24T09:36:39.398Z,20.00
2023-04-24T09:37:46.786Z,20.10
2023-04-24T09:38:49.072Z,20.20
2023-04-24T09:40:13.089Z,20.20
2023-04-24T09:41:16.204Z,20.30
2023-04-24T09:42:18.482Z,20.30
2023-04-24T09:43:20.807Z,20.40
2023-04-24T09:44:27.153Z,20.40
2023-04-24T09:45:41.936Z,20.50
2023-04-24T09:46:46.044Z,20.50
2023-04-24T09:47:53.517Z,20.40
2023-04-24T09:48:55.901Z,20.30
2023-04-24T09:50:00.463Z,20.20
2023-04-24T09:51:04.588Z,20.30
2023-04-24T09:52:11.527Z,20.30
2023-04-24T09:53:13.803Z,20.40
2023-04-24T09:54:18.417Z,20.40
2023-04-24T09:55:22.075Z,20.40
2023-04-24T09:56:27.395Z,20.40
2023-04-24T09:57:29.706Z,20.40
2023-04-24T09:58:32.220Z,20.30
2023-04-24T09:59:40.530Z,20.30
2023-04-24T10:00:42.893Z,20.20
2023-04-24T10:01:45.938Z,20.10
2023-04-24T10:02:52.060Z,20.00
2023-04-24T10:03:54.857Z,19.90
2023-04-24T10:05:00.414Z,19.80
2023-04-24T10:06:09.595Z,19.80
2023-04-24T10:07:11.925Z,19.70
2023-04-24T10:08:14.922Z,19.70
2023-04-24T10:09:19.944Z,19.70
2023-04-24T10:10:22.698Z,19.70
2023-04-24T10:11:27.586Z,19.70
2023-04-24T10:12:31.349Z,19.70
2023-04-24T10:13:33.935Z,19.70
2023-04-24T10:14:36.544Z,19.70
2023-04-24T10:15:41.674Z,19.70
2023-04-24T10:16:44.839Z,19.80
2023-04-24T10:17:53.573Z,19.80
2023-04-24T10:18:56.733Z,19.80
2023-04-24T10:20:01.485Z,19.90
2023-04-24T10:21:04.238Z,19.90
2023-04-24T10:22:08.822Z,20.10
2023-04-24T10:23:12.967Z,20.20
2023-04-24T10:24:16.951Z,20.30
2023-04-24T10:25:24.192Z,20.50
2023-04-24T10:26:27.677Z,20.60
2023-04-24T10:27:31.902Z,20.60
2023-04-24T10:28:36.435Z,20.60
2023-04-24T10:29:41.540Z,20.70
2023-04-24T10:30:44.416Z,20.80
2023-04-24T10:31:47.958Z,20.80
2023-04-24T10:32:50.844Z,20.80
2023-04-24T10:33:54.728Z,20.80
2023-04-24T10:34:57.753Z,20.80
2023-04-24T10:36:01.319Z,20.80
2023-04-24T10:37:04.413Z,21.00
2023-04-24T10:38:11.562Z,21.00
2023-04-24T10:39:16.728Z,21.00
2023-04-24T10:40:26.313Z,20.90
2023-04-24T10:41:28.680Z,20.90
2023-04-24T10:42:31.493Z,20.80
2023-04-24T10:43:35.044Z,20.70
2023-04-24T10:44:38.082Z,20.50
2023-04-24T10:45:41.060Z,20.30
2023-04-24T10:46:51.058Z,20.10
2023-04-24T10:48:02.529Z,19.90
2023-04-24T10:49:08.066Z,19.60
2023-04-24T10:50:13.213Z,19.40
2023-04-24T10:51:16.253Z,19.10
2023-04-24T10:52:18.759Z,19.00
2023-04-24T10:53:28.035Z,18.90
2023-04-24T10:54:42.072Z,18.80
2023-04-24T10:55:47.272Z,18.70
2023-04-24T10:56:50.960Z,18.70
2023-04-24T10:58:03.982Z,18.70
2023-04-24T10:59:10.778Z,18.70
2023-04-24T11:00:26.415Z,18.80
2023-04-24T11:01:35.872Z,18.80
2023-04-24T11:02:40.274Z,18.90
2023-04-24T11:03:55.196Z,19.00
2023-04-24T11:04:57.844Z,19.00
2023-04-24T11:06:08.046Z,19.00
2023-04-24T11:07:11.307Z,19.10
2023-04-24T11:08:22.468Z,19.20
2023-04-24T11:09:29.480Z,19.20
2023-04-24T11:10:31.706Z,19.20
2023-04-24T11:11:34.979Z,19.20
2023-04-24T11:12:38.682Z,19.20
2023-04-24T11:13:55.972Z,19.20
2023-04-24T11:14:59.143Z,19.20
2023-04-24T11:16:15.008Z,19.20
2023-04-24T11:17:35.757Z,19.20
2023-04-24T11:18:39.585Z,19.20
2023-04-24T11:19:42.376Z,19.20
2023-04-24T11:20:45.827Z,19.20
2023-04-24T11:22:15.624Z,19.30
2023-04-24T11:23:19.478Z,19.30
2023-04-24T11:24:29.858Z,19.20
2023-04-24T11:25:33.473Z,19.20
2023-04-24T11:26:39.437Z,19.20
2023-04-24T11:27:47.391Z,19.20
2023-04-24T11:28:50.732Z,19.20
2023-04-24T11:29:59.169Z,19.30
2023-04-24T11:31:38.302Z,19.40
2023-04-24T11:32:48.158Z,19.60
2023-04-24T11:33:50.737Z,19.70
2023-04-24T11:35:20.492Z,19.80
2023-04-24T11:36:23.022Z,20.00
2023-04-24T11:37:31.073Z,20.10
2023-04-24T11:38:33.814Z,20.20
2023-04-24T11:39:39.198Z,20.30
2023-04-24T11:40:41.658Z,20.30
2023-04-24T11:41:45.771Z,20.30
2023-04-24T11:42:49.613Z,20.20
2023-04-24T11:43:52.794Z,20.20
2023-04-24T11:45:01.419Z,20.10
2023-04-24T11:46:05.550Z,20.10
2023-04-24T11:47:09.580Z,20.10
2023-04-24T11:48:12.364Z,20.10
2023-04-24T11:49:14.865Z,20.10
2023-04-24T11:50:19.453Z,20.10
2023-04-24T11:51:23.109Z,20.10
2023-04-24T11:52:25.612Z,20.10
2023-04-24T11:53:29.416Z,20.20
2023-04-24T11:54:32.033Z,20.20
2023-04-24T11:55:36.901Z,20.20
2023-04-24T11:56:41.793Z,20.30
2023-04-24T11:57:49.064Z,20.40
2023-04-24T11:58:54.765Z,20.50
2023-04-24T11:59:57.054Z,20.50
2023-04-24T12:00:59.712Z,20.60
2023-04-24T12:02:02.012Z,20.50
2023-04-24T12:03:11.634Z,20.60
2023-04-24T12:04:15.454Z,20.60
2023-04-24T12:05:27.156Z,20.60
2023-04-24T12:06:29.677Z,20.50
2023-04-24T12:07:45.526Z,20.40
2023-04-24T12:08:49.014Z,20.40
2023-04-24T12:09:59.199Z,20.30
2023-04-24T12:11:03.078Z,20.30
2023-04-24T12:12:07.770Z,20.30
2023-04-24T12:13:12.437Z,20.30
2023-04-24T12:14:14.784Z,20.20
2023-04-24T12:15:18.210Z,20.20
2023-04-24T12:16:20.733Z,20.20
2023-04-24T12:17:32.017Z,20.20
2023-04-24T12:18:34.466Z,20.20
2023-04-24T12:19:36.950Z,20.30
2023-04-24T12:20:39.310Z,20.30
2023-04-24T12:21:41.631Z,20.40
2023-04-24T12:23:02.660Z,20.50
2023-04-24T12:24:07.917Z,20.60
2023-04-24T12:25:11.651Z,20.80
2023-04-24T12:26:20.700Z,20.90
2023-04-24T12:27:23.171Z,21.00
2023-04-24T12:28:25.490Z,21.10
2023-04-24T12:29:27.844Z,21.10
2023-04-24T12:30:32.191Z,21.20
2023-04-24T12:31:34.443Z,21.20
2023-04-24T12:32:41.634Z,21.10
2023-04-24T12:33:44.491Z,21.00
2023-04-24T12:34:46.746Z,20.90
2023-04-24T12:35:52.454Z,20.80
2023-04-24T12:36:54.703Z,20.60
2023-04-24T12:37:57.078Z,20.40
2023-04-24T12:38:59.345Z,20.30
2023-04-24T12:40:11.273Z,20.10
2023-04-24T12:41:14.995Z,20.00
2023-04-24T12:42:27.270Z,19.90
2023-04-24T12:43:29.519Z,19.80
2023-04-24T12:44:32.820Z,19.80
2023-04-24T12:45:35.090Z,19.80
2023-04-24T12:46:37.682Z,19.80
2023-04-24T12:47:41.219Z,19.90
2023-04-24T12:48:43.676Z,19.90
2023-04-24T12:49:46.297Z,19.90
2023-04-24T12:50:48.662Z,19.90
2023-04-24T12:51:51.323Z,19.90
2023-04-24T12:52:53.549Z,19.90
2023-04-24T12:53:56.640Z,19.90
2023-04-24T12:55:00.945Z,19.90
2023-04-24T12:56:03.225Z,19.90
2023-04-24T12:57:05.974Z,19.90
2023-04-24T12:58:08.347Z,19.90
2023-04-24T12:59:10.933Z,20.00
2023-04-24T13:00:14.022Z,20.00
2023-04-24T13:01:16.378Z,20.00
2023-04-24T13:02:19.090Z,19.90
2023-04-24T13:03:21.850Z,19.90
2023-04-24T13:04:24.420Z,19.90
2023-04-24T13:05:26.803Z,19.80
2023-04-24T13:06:29.141Z,19.70
2023-04-24T13:07:31.648Z,19.60
2023-04-24T13:08:33.962Z,19.70
2023-04-24T13:09:36.916Z,19.60
2023-04-24T13:10:39.638Z,19.60
2023-04-24T13:11:42.311Z,19.60
2023-04-24T13:12:47.620Z,19.60
2023-04-24T13:13:49.952Z,19.60
2023-04-24T13:14:52.525Z,19.60
2023-04-24T13:15:54.737Z,19.60
2023-04-24T13:16:57.629Z,19.50
2023-04-24T13:18:00.342Z,19.50
2023-04-24T13:19:02.596Z,19.60
2023-04-24T13:20:05.801Z,19.60
2023-04-24T13:21:08.136Z,19.60
2023-04-24T13:22:12.040Z,19.70
2023-04-24T13:23:14.553Z,19.70
2023-04-24T13:24:17.019Z,19.80
2023-04-24T13:25:21.445Z,19.70
2023-04-24T13:26:23.775Z,19.70
2023-04-24T13:27:26.038Z,19.60
2023-04-24T13:28:29.093Z,19.60
2023-04-24T13:29:31.491Z,19.50
2023-04-24T13:30:34.014Z,19.60
2023-04-24T13:31:38.359Z,19.60
2023-04-24T13:32:40.862Z,19.60
2023-04-24T13:33:43.441Z,19.60
2023-04-24T13:34:46.124Z,19.60
2023-04-24T13:35:48.339Z,19.60
2023-04-24T13:36:53.656Z,19.70
2023-04-24T13:37:56.171Z,19.70
2023-04-24T13:38:58.484Z,19.80
2023-04-24T13:40:01.368Z,19.80
2023-04-24T13:41:03.736Z,19.80
2023-04-24T13:42:06.081Z,19.80
2023-04-24T13:43:08.366Z,19.70
2023-04-24T13:44:10.774Z,19.70
2023-04-24T13:45:23.974Z,19.70
2023-04-24T13:46:27.856Z,19.70
2023-04-24T13:47:30.300Z,19.70